createdAt,value
2022-10-04T00:01:55.858Z,74.90
2022-10-04T00:04:32.624Z,75.24
2022-10-04T00:07:08.855Z,75.61
2022-10-04T00:09:49.508Z,75.48
2022-10-04T00:12:26.048Z,75.30
2022-10-04T00:15:01.535Z,75.42
2022-10-04T00:17:35.995Z,75.50
2022-10-04T00:20:32.075Z,75.65
2022-10-04T00:23:30.264Z,76.12
2022-10-04T00:26:03.437Z,75.43
2022-10-04T00:28:49.132Z,75.27
2022-10-04T00:31:26.016Z,75.30
2022-10-04T00:34:19.829Z,75.31
2022-10-04T00:36:58.234Z,74.85
2022-10-04T00:39:47.515Z,74.79
2022-10-04T00:42:42.501Z,74.82
2022-10-04T00:45:29.555Z,74.82
2022-10-04T00:48:12.755Z,75.05
2022-10-04T00:50:48.648Z,74.79
2022-10-04T00:53:25.047Z,74.99
2022-10-04T00:56:00.208Z,74.86
2022-10-04T00:58:36.739Z,74.78
2022-10-04T01:01:08.469Z,74.98
2022-10-04T01:03:44.176Z,75.30
2022-10-04T01:06:16.845Z,75.02
2022-10-04T01:08:53.185Z,74.86
2022-10-04T01:11:29.919Z,74.20
2022-10-04T01:14:04.829Z,74.66
2022-10-04T01:16:39.053Z,74.57
2022-10-04T01:19:33.248Z,74.22
2022-10-04T01:22:22.927Z,74.05
2022-10-04T01:24:54.166Z,73.72
2022-10-04T01:27:42.608Z,74.09
2022-10-04T01:30:16.797Z,73.87
2022-10-04T01:32:48.159Z,73.88
2022-10-04T01:35:20.641Z,73.67
2022-10-04T01:37:51.958Z,73.58
2022-10-04T01:40:23.473Z,73.14
2022-10-04T01:43:00.426Z,73.39
2022-10-04T01:45:37.573Z,73.73
2022-10-04T01:48:14.145Z,73.73
2022-10-04T01:50:48.794Z,73.72
2022-10-04T01:53:21.584Z,73.18
2022-10-04T01:55:56.476Z,73.39
2022-10-04T01:58:31.114Z,73.84
2022-10-04T02:01:09.179Z,74.08
2022-10-04T02:03:44.155Z,74.15
2022-10-04T02:06:17.307Z,74.36
2022-10-04T02:08:54.997Z,74.00
2022-10-04T02:11:30.523Z,73.90
2022-10-04T02:14:01.986Z,73.66
2022-10-04T02:16:37.515Z,73.90
2022-10-04T02:19:12.424Z,74.07
2022-10-04T02:21:45.809Z,74.23
2022-10-04T02:24:17.825Z,74.34
2022-10-04T02:26:54.340Z,74.48
2022-10-04T02:29:25.724Z,74.62
2022-10-04T02:32:22.665Z,74.55
2022-10-04T02:34:55.512Z,74.76
2022-10-04T02:37:29.079Z,74.66
2022-10-04T02:40:06.523Z,74.51
2022-10-04T02:42:46.295Z,74.32
2022-10-04T02:45:26.126Z,74.44
2022-10-04T02:48:02.994Z,74.69
2022-10-04T02:50:37.868Z,75.03
2022-10-04T02:53:19.322Z,74.98
2022-10-04T02:55:51.905Z,74.53
2022-10-04T02:58:26.237Z,74.37
2022-10-04T03:01:00.700Z,74.71
2022-10-04T03:03:34.883Z,74.90
2022-10-04T03:06:10.254Z,75.19
2022-10-04T03:08:49.403Z,75.57
2022-10-04T03:11:24.010Z,75.46
2022-10-04T03:13:57.320Z,75.69
2022-10-04T03:16:28.823Z,75.59
2022-10-04T03:19:01.738Z,75.61
2022-10-04T03:21:34.627Z,76.12
2022-10-04T03:24:07.388Z,76.34
2022-10-04T03:26:41.174Z,76.23
2022-10-04T03:29:15.627Z,75.81
2022-10-04T03:31:48.576Z,75.28
2022-10-04T03:34:27.557Z,75.18
2022-10-04T03:37:05.847Z,74.77
2022-10-04T03:39:47.529Z,74.92
2022-10-04T03:42:22.244Z,75.09
2022-10-04T03:44:54.355Z,75.47
2022-10-04T03:47:29.150Z,75.23
2022-10-04T03:50:04.323Z,75.65
2022-10-04T03:52:38.439Z,75.82
2022-10-04T03:55:13.941Z,76.01
2022-10-04T03:57:45.673Z,75.73
2022-10-04T04:00:21.009Z,74.78
2022-10-04T04:02:58.774Z,75.00
2022-10-04T04:05:34.372Z,74.80
2022-10-04T04:08:14.974Z,74.72
2022-10-04T04:10:51.983Z,74.63
2022-10-04T04:13:29.064Z,74.94
2022-10-04T04:16:01.996Z,75.35
2022-10-04T04:18:36.335Z,75.61
2022-10-04T04:21:09.197Z,75.79
2022-10-04T04:23:43.022Z,75.95
2022-10-04T04:26:24.993Z,75.85
2022-10-04T04:28:59.631Z,75.76
2022-10-04T04:31:34.443Z,75.59
2022-10-04T04:34:17.674Z,75.54
2022-10-04T04:36:48.880Z,75.76
2022-10-04T04:39:41.505Z,75.53
2022-10-04T04:42:19.252Z,75.62
2022-10-04T04:44:53.513Z,75.45
2022-10-04T04:47:34.110Z,75.75
2022-10-04T04:50:09.397Z,75.37
2022-10-04T04:52:42.192Z,75.21
2022-10-04T04:55:21.041Z,75.35
2022-10-04T04:57:56.907Z,75.27
2022-10-04T05:00:34.170Z,74.85
2022-10-04T05:03:08.538Z,75.22
2022-10-04T05:05:40.026Z,75.02
2022-10-04T05:08:20.177Z,75.12
2022-10-04T05:10:58.914Z,75.51
2022-10-04T05:13:36.727Z,75.15
2022-10-04T05:16:13.217Z,75.27
2022-10-04T05:18:44.757Z,75.02
2022-10-04T05:21:21.921Z,75.25
2022-10-04T05:23:53.539Z,75.20
2022-10-04T05:26:29.145Z,74.91
2022-10-04T05:29:09.014Z,74.84
2022-10-04T05:31:47.111Z,74.56
2022-10-04T05:34:27.363Z,74.95
2022-10-04T05:37:25.616Z,75.06
2022-10-04T05:40:12.355Z,75.39
2022-10-04T05:42:46.613Z,74.97
2022-10-04T05:45:23.507Z,74.42
2022-10-04T05:47:57.495Z,74.49
2022-10-04T05:50:35.527Z,74.82
2022-10-04T05:53:28.913Z,74.54
2022-10-04T05:56:12.519Z,74.59
2022-10-04T05:58:59.348Z,74.52
2022-10-04T06:01:46.484Z,74.71
2022-10-04T06:04:30.828Z,74.77
2022-10-04T06:07:07.093Z,74.91
2022-10-04T06:09:56.694Z,74.44
2022-10-04T06:12:44.369Z,74.87
2022-10-04T06:15:41.323Z,74.47
2022-10-04T06:18:29.322Z,74.46
2022-10-04T06:21:20.874Z,73.46
2022-10-04T06:23:59.421Z,73.65
2022-10-04T06:26:36.835Z,73.71
2022-10-04T06:29:12.442Z,74.45
2022-10-04T06:32:12.126Z,74.38
2022-10-04T06:35:03.033Z,74.84
2022-10-04T06:38:23.959Z,74.24
2022-10-04T06:41:33.246Z,73.91
2022-10-04T06:44:29.612Z,74.09
2022-10-04T06:47:16.718Z,73.93
2022-10-04T06:49:55.484Z,74.13
2022-10-04T06:52:49.072Z,74.11
2022-10-04T06:56:05.935Z,74.30
2022-10-04T06:59:08.717Z,74.29
2022-10-04T07:01:48.950Z,73.98
2022-10-04T07:04:37.666Z,73.97
2022-10-04T07:07:35.921Z,73.54
2022-10-04T07:10:35.249Z,73.42
2022-10-04T07:13:17.753Z,73.70
2022-10-04T07:15:55.914Z,73.67
2022-10-04T07:18:34.608Z,73.68
2022-10-04T07:21:12.671Z,73.23
2022-10-04T07:23:50.840Z,73.26
2022-10-04T07:26:28.522Z,73.15
2022-10-04T07:29:20.629Z,73.08
2022-10-04T07:32:05.293Z,72.57
2022-10-04T07:34:42.488Z,71.97
2022-10-04T07:37:15.120Z,71.19
2022-10-04T07:39:54.401Z,70.18
2022-10-04T07:42:31.463Z,69.71
2022-10-04T07:45:19.470Z,69.53
2022-10-04T07:47:50.748Z,68.26
2022-10-04T07:50:32.490Z,67.93
2022-10-04T07:53:09.679Z,67.59
2022-10-04T07:55:57.583Z,67.70
2022-10-04T07:58:45.878Z,67.22
2022-10-04T08:01:28.695Z,67.33
2022-10-04T08:04:13.891Z,66.09
2022-10-04T08:06:57.602Z,66.45
2022-10-04T08:09:44.833Z,65.84
2022-10-04T08:12:24.421Z,64.93
2022-10-04T08:15:16.431Z,65.69
2022-10-04T08:17:58.321Z,66.68
2022-10-04T08:20:38.264Z,67.07
2022-10-04T08:23:32.657Z,66.84
2022-10-04T08:26:18.121Z,67.04
2022-10-04T08:29:17.209Z,66.25
2022-10-04T08:32:05.111Z,66.48
2022-10-04T08:34:53.386Z,66.48
2022-10-04T08:37:35.938Z,66.69
2022-10-04T08:40:39.771Z,66.75
2022-10-04T08:43:37.748Z,66.00
2022-10-04T08:46:36.080Z,66.33
2022-10-04T08:49:42.771Z,66.87
2022-10-04T08:52:38.621Z,65.83
2022-10-04T08:55:42.646Z,65.66
2022-10-04T08:58:26.386Z,66.15
2022-10-04T09:01:33.415Z,66.11
2022-10-04T09:04:42.821Z,65.99
2022-10-04T09:07:39.829Z,66.33
2022-10-04T09:10:47.055Z,66.35
2022-10-04T09:13:45.144Z,65.72
2022-10-04T09:16:26.635Z,65.48
2022-10-04T09:19:23.966Z,65.34
2022-10-04T09:22:18.556Z,64.64
2022-10-04T09:25:21.494Z,64.69
2022-10-04T09:28:21.361Z,64.19
2022-10-04T09:31:10.175Z,64.74
2022-10-04T09:33:59.754Z,65.10
2022-10-04T09:37:06.509Z,65.14
2022-10-04T09:40:01.974Z,64.57
2022-10-04T09:43:05.397Z,63.54
2022-10-04T09:46:03.593Z,63.08
2022-10-04T09:48:43.452Z,63.38
2022-10-04T09:51:45.458Z,62.64
2022-10-04T09:54:46.031Z,62.71
2022-10-04T09:57:28.309Z,62.54
2022-10-04T10:00:24.358Z,62.16
2022-10-04T10:03:28.609Z,62.27
2022-10-04T10:06:20.921Z,62.42
2022-10-04T10:09:09.019Z,61.75
2022-10-04T10:12:07.465Z,62.09
2022-10-04T10:15:04.540Z,62.24
2022-10-04T10:17:43.035Z,62.26
2022-10-04T10:20:31.418Z,61.99
2022-10-04T10:23:22.410Z,62.34
2022-10-04T10:26:15.745Z,62.61
2022-10-04T10:29:18.067Z,62.26
2022-10-04T10:32:00.137Z,62.42
2022-10-04T10:35:00.409Z,62.58
2022-10-04T10:37:46.893Z,62.84
2022-10-04T10:40:38.261Z,62.69
2022-10-04T10:43:29.644Z,62.04
2022-10-04T10:46:09.561Z,62.36
2022-10-04T10:49:05.493Z,62.79
2022-10-04T10:52:01.875Z,62.93
2022-10-04T10:55:06.396Z,62.35
2022-10-04T10:58:00.574Z,61.91
2022-10-04T11:00:52.112Z,62.00
2022-10-04T11:03:56.582Z,61.92
2022-10-04T11:07:08.830Z,62.15
2022-10-04T11:10:07.353Z,62.81
2022-10-04T11:13:12.692Z,62.86
2022-10-04T11:16:10.758Z,62.62
2022-10-04T11:19:16.864Z,62.43
2022-10-04T11:22:16.928Z,62.68
2022-10-04T11:25:12.990Z,62.41
2022-10-04T11:27:57.429Z,62.56
2022-10-04T11:30:38.568Z,62.16
2022-10-04T11:33:56.118Z,61.39
2022-10-04T11:36:39.426Z,61.92
2022-10-04T11:39:42.548Z,61.63
2022-10-04T11:42:28.470Z,61.37
2022-10-04T11:45:22.652Z,61.27
2022-10-04T11:48:11.468Z,61.57
2022-10-04T11:51:05.322Z,61.24
2022-10-04T11:54:21.513Z,60.83
2022-10-04T11:57:25.599Z,61.20
2022-10-04T12:00:03.824Z,61.05
2022-10-04T12:03:18.811Z,60.04
2022-10-04T12:06:01.947Z,58.72
2022-10-04T12:08:47.444Z,59.40
2022-10-04T12:11:51.202Z,58.90
2022-10-04T12:14:35.972Z,58.08
2022-10-04T12:17:36.715Z,58.21
2022-10-04T12:20:37.290Z,58.40
2022-10-04T12:23:31.315Z,57.66
2022-10-04T12:26:33.205Z,58.24
2022-10-04T12:29:33.982Z,58.41
2022-10-04T12:32:12.141Z,58.74
2022-10-04T12:34:53.340Z,58.72
2022-10-04T12:37:31.655Z,58.47
2022-10-04T12:40:26.932Z,58.16
2022-10-04T12:43:11.579Z,58.22
2022-10-04T12:45:53.036Z,58.61
2022-10-04T12:48:49.487Z,58.17
2022-10-04T12:51:38.426Z,58.72
2022-10-04T12:54:21.983Z,58.93
2022-10-04T12:57:06.590Z,59.07
2022-10-04T12:59:52.502Z,58.85
2022-10-04T13:02:38.835Z,58.75
2022-10-04T13:05:20.787Z,59.16
2022-10-04T13:08:07.127Z,58.65
2022-10-04T13:10:53.245Z,58.38
2022-10-04T13:13:55.101Z,58.86
2022-10-04T13:19:40.437Z,58.90
2022-10-04T13:22:54.871Z,58.62
2022-10-04T13:25:33.909Z,58.59
2022-10-04T13:28:13.461Z,57.88
2022-10-04T13:30:51.053Z,58.00
2022-10-04T13:33:31.749Z,58.12
2022-10-04T13:36:10.496Z,58.85
2022-10-04T13:39:20.556Z,58.51
2022-10-04T13:42:15.448Z,58.71
2022-10-04T13:45:12.135Z,59.17
2022-10-04T13:48:03.542Z,59.33
2022-10-04T13:50:54.793Z,60.18
2022-10-04T13:53:56.872Z,59.98
2022-10-04T13:57:07.193Z,59.75
2022-10-04T13:59:46.485Z,58.84
2022-10-04T14:02:40.811Z,59.37
2022-10-04T14:05:39.482Z,59.31
2022-10-04T14:08:50.362Z,59.13
2022-10-04T14:11:49.145Z,59.40
2022-10-04T14:15:07.194Z,58.97
2022-10-04T14:18:27.405Z,59.33
2022-10-04T14:21:42.947Z,59.51
2022-10-04T14:24:40.786Z,59.27
2022-10-04T14:27:29.680Z,58.95
2022-10-04T14:30:12.783Z,58.92
2022-10-04T14:33:31.486Z,58.92
2022-10-04T14:36:25.871Z,59.07
2022-10-04T14:39:22.492Z,58.82
2022-10-04T14:42:24.207Z,59.13
2022-10-04T14:45:30.781Z,59.67
2022-10-04T14:48:40.587Z,59.36
2022-10-04T14:51:37.681Z,59.07
2022-10-04T14:54:14.072Z,59.57
2022-10-04T14:57:02.823Z,59.75
2022-10-04T14:59:55.022Z,59.91
2022-10-04T15:02:57.484Z,60.23
2022-10-04T15:05:40.951Z,60.20
2022-10-04T15:08:51.140Z,60.25
2022-10-04T15:11:35.921Z,60.22
2022-10-04T15:14:25.134Z,60.02
2022-10-04T15:16:59.753Z,60.14
2022-10-04T15:19:32.121Z,60.06
2022-10-04T15:22:09.143Z,60.50
2022-10-04T15:24:51.844Z,60.87
2022-10-04T15:27:49.852Z,60.97
2022-10-04T15:30:47.879Z,60.98
2022-10-04T15:33:30.989Z,61.37
2022-10-04T15:36:49.086Z,61.51
2022-10-04T15:39:51.689Z,61.86
2022-10-04T15:42:29.565Z,61.88
2022-10-04T15:45:31.015Z,62.00
2022-10-04T15:48:30.792Z,61.98
2022-10-04T15:51:08.852Z,62.05
2022-10-04T15:54:05.400Z,62.05
2022-10-04T15:56:47.874Z,61.97
2022-10-04T15:59:42.841Z,62.15
2022-10-04T16:02:32.029Z,62.40
2022-10-04T16:05:19.804Z,62.51
2022-10-04T16:08:07.456Z,62.74
2022-10-04T16:11:11.115Z,62.97
2022-10-04T16:14:25.259Z,63.20
2022-10-04T16:17:09.982Z,62.87
2022-10-04T16:20:17.986Z,63.23
2022-10-04T16:23:19.411Z,63.50
2022-10-04T16:25:50.633Z,63.53
2022-10-04T16:28:35.204Z,63.72
2022-10-04T16:31:25.114Z,64.09
2022-10-04T16:34:03.697Z,63.88
2022-10-04T16:36:52.577Z,64.20
2022-10-04T16:39:56.793Z,64.44
2022-10-04T16:42:34.452Z,64.27
2022-10-04T16:45:34.001Z,64.45
2022-10-04T16:48:15.537Z,64.82
2022-10-04T16:51:27.716Z,65.34
2022-10-04T16:54:07.375Z,65.61
2022-10-04T16:57:17.931Z,66.09
2022-10-04T17:00:00.732Z,65.57
2022-10-04T17:02:47.287Z,66.04
2022-10-04T17:05:47.589Z,65.86
2022-10-04T17:08:50.937Z,65.82
2022-10-04T17:11:58.372Z,65.59
2022-10-04T17:15:02.174Z,65.95
2022-10-04T17:17:46.442Z,65.96
2022-10-04T17:20:31.923Z,65.98
2022-10-04T17:23:19.372Z,66.27
2022-10-04T17:26:00.394Z,66.51
2022-10-04T17:28:35.944Z,66.50
2022-10-04T17:31:15.616Z,66.58
2022-10-04T17:33:57.276Z,66.66
2022-10-04T17:36:38.862Z,66.72
2022-10-04T17:39:27.269Z,66.46
2022-10-04T17:42:11.722Z,66.37
2022-10-04T17:45:03.288Z,67.05
2022-10-04T17:47:52.905Z,66.84
2022-10-04T17:50:46.507Z,67.41
2022-10-04T17:53:39.582Z,67.50
2022-10-04T17:56:14.310Z,67.30
2022-10-04T17:58:47.178Z,66.66
2022-10-04T18:01:28.015Z,66.97
2022-10-04T18:04:10.685Z,67.14
2022-10-04T18:06:49.671Z,67.21
2022-10-04T18:09:28.911Z,67.38
2022-10-04T18:12:05.809Z,67.26
2022-10-04T18:14:53.613Z,67.27
2022-10-04T18:17:36.661Z,67.43
2022-10-04T18:20:28.234Z,67.63
2022-10-04T18:23:13.813Z,67.95
2022-10-04T18:25:46.464Z,67.80
2022-10-04T18:28:22.398Z,68.10
2022-10-04T18:31:00.743Z,68.26
2022-10-04T18:33:50.809Z,68.02
2022-10-04T18:36:25.233Z,68.14
2022-10-04T18:39:19.212Z,67.95
2022-10-04T18:42:02.672Z,67.93
2022-10-04T18:44:46.046Z,67.43
2022-10-04T18:47:31.302Z,67.47
2022-10-04T18:50:15.779Z,67.64
2022-10-04T18:52:58.305Z,67.75
2022-10-04T18:55:40.582Z,67.86
2022-10-04T18:58:44.079Z,68.10
2022-10-04T19:01:48.426Z,68.15
2022-10-04T19:04:28.175Z,68.22
2022-10-04T19:07:08.146Z,68.23
2022-10-04T19:09:58.809Z,68.23
2022-10-04T19:12:36.267Z,68.51
2022-10-04T19:15:19.907Z,68.15
2022-10-04T19:18:04.589Z,68.05
2022-10-04T19:20:42.995Z,68.42
2022-10-04T19:23:26.282Z,68.25
2022-10-04T19:26:30.606Z,68.60
2022-10-04T19:29:01.432Z,68.60
2022-10-04T19:31:44.016Z,68.67
2022-10-04T19:34:20.168Z,68.94
2022-10-04T19:36:58.359Z,69.32
2022-10-04T19:39:41.861Z,69.24
2022-10-04T19:42:18.111Z,69.58
2022-10-04T19:45:00.612Z,69.35
2022-10-04T19:47:45.291Z,69.14
2022-10-04T19:50:25.360Z,69.36
2022-10-04T19:53:02.125Z,69.31
2022-10-04T19:55:46.883Z,69.41
2022-10-04T19:58:30.657Z,69.62
2022-10-04T20:01:02.278Z,69.42
2022-10-04T20:03:33.552Z,69.54
2022-10-04T20:06:06.038Z,69.51
2022-10-04T20:09:00.751Z,69.27
2022-10-04T20:11:50.535Z,69.93
2022-10-04T20:14:49.380Z,69.95
2022-10-04T20:17:36.465Z,70.25
2022-10-04T20:20:08.150Z,70.50
2022-10-04T20:22:58.598Z,70.43
2022-10-04T20:26:00.232Z,70.76
2022-10-04T20:28:47.633Z,70.94
2022-10-04T20:31:56.172Z,70.89
2022-10-04T20:34:35.867Z,70.61
2022-10-04T20:37:08.523Z,70.51
2022-10-04T20:40:02.414Z,70.85
2022-10-04T20:42:36.398Z,70.41
2022-10-04T20:45:28.090Z,69.98
2022-10-04T20:48:00.074Z,70.12
2022-10-04T20:50:49.943Z,70.58
2022-10-04T20:53:30.569Z,70.57
2022-10-04T20:56:21.509Z,70.45
2022-10-04T20:58:56.162Z,69.74
2022-10-04T21:01:44.763Z,69.42
2022-10-04T21:04:30.133Z,69.29
2022-10-04T21:07:03.271Z,69.59
2022-10-04T21:09:36.351Z,70.09
2022-10-04T21:12:28.290Z,70.25
2022-10-04T21:15:09.137Z,70.13
2022-10-04T21:17:41.214Z,69.93
2022-10-04T21:20:16.853Z,69.71
2022-10-04T21:22:53.061Z,69.54
2022-10-04T21:25:33.734Z,69.46
2022-10-04T21:28:26.787Z,68.84
2022-10-04T21:30:58.285Z,69.09
2022-10-04T21:33:29.492Z,69.30
2022-10-04T21:36:00.973Z,69.75
2022-10-04T21:38:32.190Z,69.86
2022-10-04T21:41:03.488Z,69.36
2022-10-04T21:43:36.159Z,69.14
2022-10-04T21:46:08.215Z,69.49
2022-10-04T21:48:39.586Z,69.55
2022-10-04T21:51:11.009Z,69.26
2022-10-04T21:53:43.027Z,69.26
2022-10-04T21:56:14.967Z,69.54
2022-10-04T21:58:47.609Z,69.87
2022-10-04T22:04:25.687Z,70.35
2022-10-04T22:06:57.093Z,71.12
2022-10-04T22:09:29.594Z,71.47
2022-10-04T22:12:01.438Z,71.47
2022-10-04T22:14:36.500Z,71.67
2022-10-04T22:17:07.924Z,71.15
2022-10-04T22:19:40.243Z,71.33
2022-10-04T22:22:16.969Z,71.18
2022-10-04T22:24:48.616Z,71.08
2022-10-04T22:27:21.544Z,71.12
2022-10-04T22:29:56.042Z,71.62
2022-10-04T22:32:29.399Z,71.65
2022-10-04T22:35:04.026Z,71.68
2022-10-04T22:37:36.454Z,71.84
2022-10-04T22:40:13.415Z,71.69
2022-10-04T22:42:45.435Z,70.96
2022-10-04T22:45:24.586Z,70.54
2022-10-04T22:47:57.803Z,70.88
2022-10-04T22:50:34.542Z,71.13
2022-10-04T22:53:12.651Z,71.58
2022-10-04T22:55:44.436Z,71.32
2022-10-04T22:58:17.050Z,71.07
2022-10-04T23:00:48.393Z,71.02
2022-10-04T23:03:29.035Z,71.24
2022-10-04T23:06:01.088Z,71.75
2022-10-04T23:08:32.940Z,71.60
2022-10-04T23:11:04.664Z,71.53
2022-10-04T23:13:35.925Z,71.64
2022-10-04T23:16:15.511Z,71.55
2022-10-04T23:18:46.787Z,71.51
2022-10-04T23:21:24.207Z,70.67
2022-10-04T23:23:56.362Z,70.81
2022-10-04T23:26:28.936Z,70.53
2022-10-04T23:29:01.995Z,70.36
2022-10-04T23:31:33.313Z,70.96
2022-10-04T23:34:14.874Z,71.51
2022-10-04T23:36:46.633Z,71.20
2022-10-04T23:39:27.979Z,71.10
2022-10-04T23:42:00.698Z,71.35
2022-10-04T23:44:35.924Z,71.22
2022-10-04T23:47:13.076Z,71.20
2022-10-04T23:49:46.058Z,71.12
2022-10-04T23:52:24.653Z,70.99
2022-10-04T23:54:57.035Z,71.20
2022-10-04T23:57:31.423Z,71.28
